sensor_id;sensor_type;location;lat;lon;timestamp;pressure;altitude;pressure_sealevel;temperature;humidity
62928;BME280;51070;52.236;-0.892;2023-06-10T00:02:03;100689.13;;;14.71;79.64
62928;BME280;51070;52.236;-0.892;2023-06-10T00:04:29;100689.63;;;14.70;79.71
62928;BME280;51070;52.236;-0.892;2023-06-10T00:06:54;100689.61;;;14.69;79.67
62928;BME280;51070;52.236;-0.892;2023-06-10T00:09:20;100689.25;;;14.68;79.82
62928;BME280;51070;52.236;-0.892;2023-06-10T00:11:46;100690.63;;;14.66;79.76
62928;BME280;51070;52.236;-0.892;2023-06-10T00:14:12;100688.32;;;14.64;79.68
62928;BME280;51070;52.236;-0.892;2023-06-10T00:16:37;100690.21;;;14.62;79.97
62928;BME280;51070;52.236;-0.892;2023-06-10T00:19:04;100688.63;;;14.61;79.90
62928;BME280;51070;52.236;-0.892;2023-06-10T00:21:32;100687.22;;;14.60;79.89
62928;BME280;51070;52.236;-0.892;2023-06-10T00:24:04;100686.15;;;14.59;79.95
62928;BME280;51070;52.236;-0.892;2023-06-10T00:26:30;100681.79;;;14.57;80.12
62928;BME280;51070;52.236;-0.892;2023-06-10T00:28:56;100683.11;;;14.54;80.18
62928;BME280;51070;52.236;-0.892;2023-06-10T00:31:21;100679.79;;;14.51;80.25
62928;BME280;51070;52.236;-0.892;2023-06-10T00:33:47;100673.89;;;14.53;80.30
62928;BME280;51070;52.236;-0.892;2023-06-10T00:36:12;100670.05;;;14.53;80.01
62928;BME280;51070;52.236;-0.892;2023-06-10T00:38:37;100668.83;;;14.52;79.94
62928;BME280;51070;52.236;-0.892;2023-06-10T00:41:03;100670.42;;;14.54;79.97
62928;BME280;51070;52.236;-0.892;2023-06-10T00:43:29;100668.39;;;14.56;79.82
62928;BME280;51070;52.236;-0.892;2023-06-10T00:45:54;100673.06;;;14.55;79.72
62928;BME280;51070;52.236;-0.892;2023-06-10T00:48:20;100674.41;;;14.53;79.99
62928;BME280;51070;52.236;-0.892;2023-06-10T00:50:46;100672.84;;;14.52;79.84
62928;BME280;51070;52.236;-0.892;2023-06-10T00:53:13;100670.76;;;14.52;79.94
62928;BME280;51070;52.236;-0.892;2023-06-10T00:55:39;100665.35;;;14.52;79.72
62928;BME280;51070;52.236;-0.892;2023-06-10T00:58:05;100664.61;;;14.49;79.83
62928;BME280;51070;52.236;-0.892;2023-06-10T01:00:30;100665.48;;;14.49;79.71
62928;BME280;51070;52.236;-0.892;2023-06-10T01:02:56;100664.77;;;14.49;79.73
62928;BME280;51070;52.236;-0.892;2023-06-10T01:05:23;100665.63;;;14.47;80.07
62928;BME280;51070;52.236;-0.892;2023-06-10T01:08:07;100665.10;;;14.46;79.98
62928;BME280;51070;52.236;-0.892;2023-06-10T01:10:41;100665.23;;;14.45;79.87
62928;BME280;51070;52.236;-0.892;2023-06-10T01:13:11;100664.80;;;14.39;79.93
62928;BME280;51070;52.236;-0.892;2023-06-10T01:15:39;100663.15;;;14.35;80.27
62928;BME280;51070;52.236;-0.892;2023-06-10T01:18:09;100662.73;;;14.32;80.28
62928;BME280;51070;52.236;-0.892;2023-06-10T01:20:36;100658.04;;;14.31;80.37
62928;BME280;51070;52.236;-0.892;2023-06-10T01:23:05;100658.02;;;14.31;80.36
62928;BME280;51070;52.236;-0.892;2023-06-10T01:25:32;100661.00;;;14.32;80.49
62928;BME280;51070;52.236;-0.892;2023-06-10T01:29:04;100655.29;;;14.33;80.34
62928;BME280;51070;52.236;-0.892;2023-06-10T01:33:46;100655.13;;;14.33;80.28
62928;BME280;51070;52.236;-0.892;2023-06-10T01:36:15;100655.09;;;14.32;80.05
62928;BME280;51070;52.236;-0.892;2023-06-10T01:38:45;100650.17;;;14.28;80.01
62928;BME280;51070;52.236;-0.892;2023-06-10T01:41:16;100650.81;;;14.25;80.08
62928;BME280;51070;52.236;-0.892;2023-06-10T01:43:46;100644.33;;;14.21;80.17
62928;BME280;51070;52.236;-0.892;2023-06-10T01:46:11;100645.34;;;14.20;80.21
62928;BME280;51070;52.236;-0.892;2023-06-10T01:48:41;100639.95;;;14.19;80.07
62928;BME280;51070;52.236;-0.892;2023-06-10T01:51:07;100641.31;;;14.17;80.06
62928;BME280;51070;52.236;-0.892;2023-06-10T01:53:32;100639.36;;;14.16;80.41
62928;BME280;51070;52.236;-0.892;2023-06-10T01:55:58;100636.09;;;14.17;80.25
62928;BME280;51070;52.236;-0.892;2023-06-10T01:58:23;100637.15;;;14.18;80.04
62928;BME280;51070;52.236;-0.892;2023-06-10T02:00:49;100632.58;;;14.15;80.17
62928;BME280;51070;52.236;-0.892;2023-06-10T02:03:14;100631.34;;;14.13;80.23
62928;BME280;51070;52.236;-0.892;2023-06-10T02:05:40;100629.59;;;14.12;80.26
62928;BME280;51070;52.236;-0.892;2023-06-10T02:08:05;100631.11;;;14.10;79.87
62928;BME280;51070;52.236;-0.892;2023-06-10T02:10:31;100626.52;;;14.06;79.92
62928;BME280;51070;52.236;-0.892;2023-06-10T02:12:57;100627.96;;;13.99;79.87
62928;BME280;51070;52.236;-0.892;2023-06-10T02:15:22;100627.18;;;13.94;80.03
62928;BME280;51070;52.236;-0.892;2023-06-10T02:17:48;100623.48;;;13.90;80.09
62928;BME280;51070;52.236;-0.892;2023-06-10T02:20:16;100622.71;;;13.86;80.12
62928;BME280;51070;52.236;-0.892;2023-06-10T02:22:42;100621.63;;;13.83;80.42
62928;BME280;51070;52.236;-0.892;2023-06-10T02:25:08;100622.95;;;13.80;80.51
62928;BME280;51070;52.236;-0.892;2023-06-10T02:27:33;100622.54;;;13.77;80.56
62928;BME280;51070;52.236;-0.892;2023-06-10T02:29:59;100620.95;;;13.74;80.70
62928;BME280;51070;52.236;-0.892;2023-06-10T02:32:25;100615.84;;;13.72;80.89
62928;BME280;51070;52.236;-0.892;2023-06-10T02:34:51;100619.13;;;13.70;80.72
62928;BME280;51070;52.236;-0.892;2023-06-10T02:37:16;100617.30;;;13.65;80.82
62928;BME280;51070;52.236;-0.892;2023-06-10T02:39:42;100619.48;;;13.61;81.00
62928;BME280;51070;52.236;-0.892;2023-06-10T02:42:08;100616.10;;;13.57;81.16
62928;BME280;51070;52.236;-0.892;2023-06-10T02:44:34;100616.04;;;13.53;81.40
62928;BME280;51070;52.236;-0.892;2023-06-10T02:46:59;100613.90;;;13.51;81.40
62928;BME280;51070;52.236;-0.892;2023-06-10T02:49:25;100615.79;;;13.50;81.71
62928;BME280;51070;52.236;-0.892;2023-06-10T02:51:53;100612.48;;;13.50;81.60
62928;BME280;51070;52.236;-0.892;2023-06-10T02:54:20;100611.80;;;13.49;81.79
62928;BME280;51070;52.236;-0.892;2023-06-10T02:56:45;100607.08;;;13.47;81.56
62928;BME280;51070;52.236;-0.892;2023-06-10T02:59:13;100603.89;;;13.44;81.62
62928;BME280;51070;52.236;-0.892;2023-06-10T03:01:39;100608.59;;;13.44;81.79
62928;BME280;51070;52.236;-0.892;2023-06-10T03:04:05;100605.92;;;13.41;81.97
62928;BME280;51070;52.236;-0.892;2023-06-10T03:06:31;100603.79;;;13.39;82.03
62928;BME280;51070;52.236;-0.892;2023-06-10T03:08:58;100604.48;;;13.38;81.98
62928;BME280;51070;52.236;-0.892;2023-06-10T03:11:23;100602.91;;;13.38;81.99
62928;BME280;51070;52.236;-0.892;2023-06-10T03:13:51;100599.41;;;13.36;82.34
62928;BME280;51070;52.236;-0.892;2023-06-10T03:16:16;100601.98;;;13.35;82.27
62928;BME280;51070;52.236;-0.892;2023-06-10T03:18:42;100600.23;;;13.35;82.31
62928;BME280;51070;52.236;-0.892;2023-06-10T03:21:08;100597.45;;;13.34;82.36
62928;BME280;51070;52.236;-0.892;2023-06-10T03:23:34;100595.87;;;13.32;82.27
62928;BME280;51070;52.236;-0.892;2023-06-10T03:26:00;100599.27;;;13.29;82.61
62928;BME280;51070;52.236;-0.892;2023-06-10T03:28:25;100596.21;;;13.24;82.66
62928;BME280;51070;52.236;-0.892;2023-06-10T03:30:51;100598.27;;;13.22;82.80
62928;BME280;51070;52.236;-0.892;2023-06-10T03:33:17;100598.98;;;13.22;82.94
62928;BME280;51070;52.236;-0.892;2023-06-10T03:35:42;100599.17;;;13.25;82.93
62928;BME280;51070;52.236;-0.892;2023-06-10T03:38:08;100595.02;;;13.25;83.33
62928;BME280;51070;52.236;-0.892;2023-06-10T03:40:33;100600.23;;;13.25;83.27
62928;BME280;51070;52.236;-0.892;2023-06-10T03:43:00;100598.80;;;13.24;83.20
62928;BME280;51070;52.236;-0.892;2023-06-10T03:45:26;100598.33;;;13.25;83.22
62928;BME280;51070;52.236;-0.892;2023-06-10T03:47:53;100592.77;;;13.26;83.19
62928;BME280;51070;52.236;-0.892;2023-06-10T03:50:19;100597.30;;;13.26;83.11
62928;BME280;51070;52.236;-0.892;2023-06-10T03:52:45;100593.13;;;13.25;83.08
62928;BME280;51070;52.236;-0.892;2023-06-10T03:55:12;100590.84;;;13.24;83.14
62928;BME280;51070;52.236;-0.892;2023-06-10T03:57:39;100592.55;;;13.23;83.21
62928;BME280;51070;52.236;-0.892;2023-06-10T04:00:05;100591.33;;;13.23;83.65
62928;BME280;51070;52.236;-0.892;2023-06-10T04:02:36;100595.70;;;13.25;83.57
62928;BME280;51070;52.236;-0.892;2023-06-10T04:05:02;100593.60;;;13.23;83.63
62928;BME280;51070;52.236;-0.892;2023-06-10T04:07:27;100595.84;;;13.23;83.78
62928;BME280;51070;52.236;-0.892;2023-06-10T04:09:53;100595.53;;;13.24;83.77
62928;BME280;51070;52.236;-0.892;2023-06-10T04:12:19;100593.47;;;13.25;83.74
62928;BME280;51070;52.236;-0.892;2023-06-10T04:14:44;100595.07;;;13.27;83.77
62928;BME280;51070;52.236;-0.892;2023-06-10T04:17:09;100594.90;;;13.27;83.80
62928;BME280;51070;52.236;-0.892;2023-06-10T04:19:35;100598.38;;;13.29;83.65
62928;BME280;51070;52.236;-0.892;2023-06-10T04:22:01;100597.02;;;13.30;83.77
62928;BME280;51070;52.236;-0.892;2023-06-10T04:24:27;100596.55;;;13.32;83.89
62928;BME280;51070;52.236;-0.892;2023-06-10T04:26:53;100597.48;;;13.36;83.89
62928;BME280;51070;52.236;-0.892;2023-06-10T04:29:18;100595.83;;;13.40;83.82
62928;BME280;51070;52.236;-0.892;2023-06-10T04:31:44;100598.52;;;13.44;83.60
62928;BME280;51070;52.236;-0.892;2023-06-10T04:34:11;100600.67;;;13.48;83.48
62928;BME280;51070;52.236;-0.892;2023-06-10T04:36:37;100601.41;;;13.51;83.31
62928;BME280;51070;52.236;-0.892;2023-06-10T04:39:03;100595.92;;;13.55;83.05
62928;BME280;51070;52.236;-0.892;2023-06-10T04:41:28;100595.64;;;13.58;83.13
62928;BME280;51070;52.236;-0.892;2023-06-10T04:43:53;100593.77;;;13.61;82.86
62928;BME280;51070;52.236;-0.892;2023-06-10T04:46:19;100597.16;;;13.65;83.11
62928;BME280;51070;52.236;-0.892;2023-06-10T04:48:44;100592.04;;;13.70;82.96
62928;BME280;51070;52.236;-0.892;2023-06-10T04:51:12;100588.81;;;13.74;82.79
62928;BME280;51070;52.236;-0.892;2023-06-10T04:53:38;100587.61;;;13.75;82.75
62928;BME280;51070;52.236;-0.892;2023-06-10T04:56:04;100585.73;;;13.77;82.84
62928;BME280;51070;52.236;-0.892;2023-06-10T04:58:29;100584.86;;;13.77;82.65
62928;BME280;51070;52.236;-0.892;2023-06-10T05:00:55;100581.76;;;13.78;82.87
62928;BME280;51070;52.236;-0.892;2023-06-10T05:03:21;100581.48;;;13.82;82.86
62928;BME280;51070;52.236;-0.892;2023-06-10T05:05:46;100582.93;;;13.85;82.75
62928;BME280;51070;52.236;-0.892;2023-06-10T05:08:12;100585.81;;;13.93;82.82
62928;BME280;51070;52.236;-0.892;2023-06-10T05:10:37;100590.99;;;14.01;82.59
62928;BME280;51070;52.236;-0.892;2023-06-10T05:13:03;100586.94;;;14.08;82.48
62928;BME280;51070;52.236;-0.892;2023-06-10T05:15:28;100583.61;;;14.17;82.27
62928;BME280;51070;52.236;-0.892;2023-06-10T05:17:56;100580.96;;;14.26;81.90
62928;BME280;51070;52.236;-0.892;2023-06-10T05:20:23;100582.60;;;14.32;81.58
62928;BME280;51070;52.236;-0.892;2023-06-10T05:22:50;100577.77;;;14.34;81.49
62928;BME280;51070;52.236;-0.892;2023-06-10T05:25:16;100574.02;;;14.38;81.43
62928;BME280;51070;52.236;-0.892;2023-06-10T05:27:41;100575.15;;;14.43;81.26
62928;BME280;51070;52.236;-0.892;2023-06-10T05:30:10;100574.55;;;14.49;81.16
62928;BME280;51070;52.236;-0.892;2023-06-10T05:32:35;100577.95;;;14.56;80.97
62928;BME280;51070;52.236;-0.892;2023-06-10T05:35:01;100579.64;;;14.65;80.92
62928;BME280;51070;52.236;-0.892;2023-06-10T05:37:29;100576.45;;;14.74;80.65
62928;BME280;51070;52.236;-0.892;2023-06-10T05:39:54;100578.99;;;14.83;80.25
62928;BME280;51070;52.236;-0.892;2023-06-10T05:42:20;100581.55;;;14.92;80.07
62928;BME280;51070;52.236;-0.892;2023-06-10T05:44:45;100581.45;;;14.99;79.85
62928;BME280;51070;52.236;-0.892;2023-06-10T05:47:10;100580.33;;;15.06;79.35
62928;BME280;51070;52.236;-0.892;2023-06-10T05:49:36;100582.48;;;15.12;79.24
62928;BME280;51070;52.236;-0.892;2023-06-10T05:52:01;100589.34;;;15.19;78.85
62928;BME280;51070;52.236;-0.892;2023-06-10T05:54:27;100585.39;;;15.21;78.74
62928;BME280;51070;52.236;-0.892;2023-06-10T05:56:52;100587.16;;;15.26;78.79
62928;BME280;51070;52.236;-0.892;2023-06-10T05:59:17;100587.77;;;15.34;78.58
62928;BME280;51070;52.236;-0.892;2023-06-10T06:01:43;100587.14;;;15.40;78.30
62928;BME280;51070;52.236;-0.892;2023-06-10T06:04:08;100589.66;;;15.48;78.12
62928;BME280;51070;52.236;-0.892;2023-06-10T06:06:35;100593.64;;;15.60;77.92
62928;BME280;51070;52.236;-0.892;2023-06-10T06:09:00;100593.21;;;15.70;77.46
62928;BME280;51070;52.236;-0.892;2023-06-10T06:11:26;100591.59;;;16.27;76.00
62928;BME280;51070;52.236;-0.892;2023-06-10T06:13:51;100590.31;;;16.76;74.90
62928;BME280;51070;52.236;-0.892;2023-06-10T06:16:17;100588.67;;;18.40;70.82
62928;BME280;51070;52.236;-0.892;2023-06-10T06:18:43;100594.68;;;19.38;67.56
62928;BME280;51070;52.236;-0.892;2023-06-10T06:21:09;100594.82;;;19.13;66.99
62928;BME280;51070;52.236;-0.892;2023-06-10T06:23:34;100593.92;;;19.46;66.39
62928;BME280;51070;52.236;-0.892;2023-06-10T06:26:00;100586.10;;;20.94;62.32
62928;BME280;51070;52.236;-0.892;2023-06-10T06:28:25;100578.90;;;21.50;59.55
62928;BME280;51070;52.236;-0.892;2023-06-10T06:30:55;100576.95;;;20.99;59.94
62928;BME280;51070;52.236;-0.892;2023-06-10T06:33:21;100576.83;;;20.94;59.80
62928;BME280;51070;52.236;-0.892;2023-06-10T06:35:46;100573.09;;;21.62;57.37
62928;BME280;51070;52.236;-0.892;2023-06-10T06:38:11;100575.54;;;21.51;57.28
62928;BME280;51070;52.236;-0.892;2023-06-10T06:40:37;100578.95;;;21.21;57.57
62928;BME280;51070;52.236;-0.892;2023-06-10T06:43:02;100574.93;;;22.02;56.51
62928;BME280;51070;52.236;-0.892;2023-06-10T06:45:28;100573.30;;;22.80;55.11
62928;BME280;51070;52.236;-0.892;2023-06-10T06:47:53;100562.52;;;24.52;52.09
62928;BME280;51070;52.236;-0.892;2023-06-10T06:50:18;100560.55;;;26.20;48.94
62928;BME280;51070;52.236;-0.892;2023-06-10T06:52:44;100561.19;;;27.60;45.42
62928;BME280;51070;52.236;-0.892;2023-06-10T06:55:09;100558.27;;;28.90;43.35
62928;BME280;51070;52.236;-0.892;2023-06-10T06:57:35;100557.85;;;30.05;40.62
62928;BME280;51070;52.236;-0.892;2023-06-10T07:00:02;100559.58;;;31.01;38.43
62928;BME280;51070;52.236;-0.892;2023-06-10T07:02:27;100553.73;;;31.85;36.28
62928;BME280;51070;52.236;-0.892;2023-06-10T07:04:53;100551.48;;;32.44;34.79
62928;BME280;51070;52.236;-0.892;2023-06-10T07:07:21;100553.20;;;32.94;33.58
62928;BME280;51070;52.236;-0.892;2023-06-10T07:09:47;100555.48;;;33.50;33.00
62928;BME280;51070;52.236;-0.892;2023-06-10T07:12:12;100553.61;;;34.05;31.85
62928;BME280;51070;52.236;-0.892;2023-06-10T07:14:37;100555.67;;;34.59;30.83
62928;BME280;51070;52.236;-0.892;2023-06-10T07:17:03;100557.94;;;34.90;30.29
62928;BME280;51070;52.236;-0.892;2023-06-10T07:19:28;100558.05;;;35.25;29.36
62928;BME280;51070;52.236;-0.892;2023-06-10T07:21:54;100555.16;;;35.57;28.80
62928;BME280;51070;52.236;-0.892;2023-06-10T07:24:19;100552.20;;;35.85;28.25
62928;BME280;51070;52.236;-0.892;2023-06-10T07:26:45;100551.85;;;36.13;27.85
62928;BME280;51070;52.236;-0.892;2023-06-10T07:29:10;100557.09;;;36.40;27.41
62928;BME280;51070;52.236;-0.892;2023-06-10T07:31:36;100558.93;;;36.65;26.75
62928;BME280;51070;52.236;-0.892;2023-06-10T07:34:01;100558.98;;;36.87;27.03
62928;BME280;51070;52.236;-0.892;2023-06-10T07:36:27;100561.65;;;37.34;26.19
62928;BME280;51070;52.236;-0.892;2023-06-10T07:38:54;100558.45;;;37.64;25.55
62928;BME280;51070;52.236;-0.892;2023-06-10T07:41:20;100557.88;;;37.82;25.30
62928;BME280;51070;52.236;-0.892;2023-06-10T07:43:45;100557.77;;;38.04;25.18
62928;BME280;51070;52.236;-0.892;2023-06-10T07:46:11;100556.42;;;38.24;24.66
62928;BME280;51070;52.236;-0.892;2023-06-10T07:48:36;100560.15;;;38.46;24.55
62928;BME280;51070;52.236;-0.892;2023-06-10T07:51:01;100563.38;;;38.69;24.44
62928;BME280;51070;52.236;-0.892;2023-06-10T07:53:27;100565.86;;;38.96;24.16
62928;BME280;51070;52.236;-0.892;2023-06-10T07:55:53;100572.39;;;39.18;23.56
62928;BME280;51070;52.236;-0.892;2023-06-10T07:58:18;100576.55;;;39.36;23.24
62928;BME280;51070;52.236;-0.892;2023-06-10T08:00:44;100575.39;;;39.62;23.19
62928;BME280;51070;52.236;-0.892;2023-06-10T08:03:09;100575.59;;;39.91;22.33
62928;BME280;51070;52.236;-0.892;2023-06-10T08:05:35;100576.75;;;39.93;22.19
62928;BME280;51070;52.236;-0.892;2023-06-10T08:08:00;100578.02;;;40.06;22.37
62928;BME280;51070;52.236;-0.892;2023-06-10T08:10:25;100580.16;;;40.28;22.54
62928;BME280;51070;52.236;-0.892;2023-06-10T08:12:51;100576.79;;;40.42;21.58
62928;BME280;51070;52.236;-0.892;2023-06-10T08:15:16;100575.06;;;40.53;21.66
62928;BME280;51070;52.236;-0.892;2023-06-10T08:17:42;100572.90;;;40.66;21.61
62928;BME280;51070;52.236;-0.892;2023-06-10T08:20:08;100573.11;;;40.73;21.36
62928;BME280;51070;52.236;-0.892;2023-06-10T08:22:33;100572.77;;;40.73;21.75
62928;BME280;51070;52.236;-0.892;2023-06-10T08:24:59;100566.23;;;40.79;21.71
62928;BME280;51070;52.236;-0.892;2023-06-10T08:27:24;100569.02;;;40.98;21.77
62928;BME280;51070;52.236;-0.892;2023-06-10T08:29:50;100569.52;;;41.10;21.06
62928;BME280;51070;52.236;-0.892;2023-06-10T08:32:16;100569.05;;;41.05;20.83
62928;BME280;51070;52.236;-0.892;2023-06-10T08:34:41;100572.54;;;41.19;20.62
62928;BME280;51070;52.236;-0.892;2023-06-10T08:37:07;100571.73;;;41.11;20.40
62928;BME280;51070;52.236;-0.892;2023-06-10T08:39:32;100575.87;;;41.06;20.79
62928;BME280;51070;52.236;-0.892;2023-06-10T08:45:12;100575.94;;;41.58;21.18
62928;BME280;51070;52.236;-0.892;2023-06-10T08:47:44;100572.86;;;41.85;20.84
62928;BME280;51070;52.236;-0.892;2023-06-10T08:50:11;100576.70;;;42.13;20.48
62928;BME280;51070;52.236;-0.892;2023-06-10T08:52:37;100576.73;;;42.34;20.07
62928;BME280;51070;52.236;-0.892;2023-06-10T08:55:19;100573.67;;;42.41;20.11
62928;BME280;51070;52.236;-0.892;2023-06-10T08:57:48;100577.39;;;42.50;19.74
62928;BME280;51070;52.236;-0.892;2023-06-10T09:00:15;100580.55;;;42.60;19.52
62928;BME280;51070;52.236;-0.892;2023-06-10T09:02:42;100584.19;;;42.63;19.71
62928;BME280;51070;52.236;-0.892;2023-06-10T09:05:08;100581.39;;;42.69;19.65
62928;BME280;51070;52.236;-0.892;2023-06-10T09:07:35;100579.77;;;42.55;19.43
62928;BME280;51070;52.236;-0.892;2023-06-10T09:10:02;100579.40;;;42.45;19.51
62928;BME280;51070;52.236;-0.892;2023-06-10T09:12:33;100580.93;;;42.44;19.44
62928;BME280;51070;52.236;-0.892;2023-06-10T09:14:59;100581.84;;;42.37;19.43
62928;BME280;51070;52.236;-0.892;2023-06-10T09:17:25;100579.55;;;42.32;19.60
62928;BME280;51070;52.236;-0.892;2023-06-10T09:19:52;100581.92;;;42.40;20.02
62928;BME280;51070;52.236;-0.892;2023-06-10T09:22:19;100581.62;;;42.46;19.96
62928;BME280;51070;52.236;-0.892;2023-06-10T09:24:46;100579.14;;;42.46;20.00
62928;BME280;51070;52.236;-0.892;2023-06-10T09:27:12;100583.29;;;42.46;19.73
62928;BME280;51070;52.236;-0.892;2023-06-10T09:32:13;100580.99;;;42.32;19.90
62928;BME280;51070;52.236;-0.892;2023-06-10T09:34:39;100583.53;;;42.37;19.93
62928;BME280;51070;52.236;-0.892;2023-06-10T09:37:05;100582.45;;;42.33;20.07
62928;BME280;51070;52.236;-0.892;2023-06-10T09:39:30;100580.67;;;42.29;19.95
62928;BME280;51070;52.236;-0.892;2023-06-10T09:41:56;100581.40;;;42.31;19.82
62928;BME280;51070;52.236;-0.892;2023-06-10T09:44:21;100579.89;;;42.15;19.90
62928;BME280;51070;52.236;-0.892;2023-06-10T09:46:49;100581.83;;;41.91;20.40
62928;BME280;51070;52.236;-0.892;2023-06-10T09:49:18;100581.06;;;41.79;20.32
62928;BME280;51070;52.236;-0.892;2023-06-10T09:51:54;100579.38;;;41.74;20.28
62928;BME280;51070;52.236;-0.892;2023-06-10T09:54:20;100583.05;;;41.68;20.47
62928;BME280;51070;52.236;-0.892;2023-06-10T09:56:52;100581.30;;;41.63;20.65
62928;BME280;51070;52.236;-0.892;2023-06-10T09:59:30;100582.05;;;41.58;20.75
62928;BME280;51070;52.236;-0.892;2023-06-10T10:01:59;100582.11;;;41.58;20.81
62928;BME280;51070;52.236;-0.892;2023-06-10T10:04:26;100583.80;;;41.50;20.66
62928;BME280;51070;52.236;-0.892;2023-06-10T10:06:52;100582.80;;;41.31;21.08
62928;BME280;51070;52.236;-0.892;2023-06-10T10:09:17;100584.92;;;41.19;20.77
62928;BME280;51070;52.236;-0.892;2023-06-10T10:11:44;100584.28;;;41.07;21.52
62928;BME280;51070;52.236;-0.892;2023-06-10T10:14:10;100586.51;;;40.95;21.58
62928;BME280;51070;52.236;-0.892;2023-06-10T10:16:37;100588.10;;;40.73;21.85
62928;BME280;51070;52.236;-0.892;2023-06-10T10:19:15;100586.08;;;40.68;21.78
62928;BME280;51070;52.236;-0.892;2023-06-10T10:21:47;100586.54;;;40.59;21.70
62928;BME280;51070;52.236;-0.892;2023-06-10T10:24:21;100585.69;;;40.32;22.22
62928;BME280;51070;52.236;-0.892;2023-06-10T10:26:48;100586.11;;;40.06;22.54
62928;BME280;51070;52.236;-0.892;2023-06-10T10:31:51;100587.25;;;39.49;22.86
62928;BME280;51070;52.236;-0.892;2023-06-10T10:34:26;100583.91;;;39.12;23.36
62928;BME280;51070;52.236;-0.892;2023-06-10T10:36:54;100581.14;;;38.80;23.90
62928;BME280;51070;52.236;-0.892;2023-06-10T10:39:20;100574.06;;;38.46;24.00
62928;BME280;51070;52.236;-0.892;2023-06-10T10:41:46;100571.27;;;38.13;24.36
62928;BME280;51070;52.236;-0.892;2023-06-10T10:44:13;100572.39;;;37.76;25.01
62928;BME280;51070;52.236;-0.892;2023-06-10T10:46:44;100571.17;;;37.45;25.33
62928;BME280;51070;52.236;-0.892;2023-06-10T10:49:12;100567.52;;;37.19;25.73
62928;BME280;51070;52.236;-0.892;2023-06-10T10:51:37;100566.29;;;36.99;26.32
62928;BME280;51070;52.236;-0.892;2023-06-10T10:54:28;100568.48;;;36.88;26.49
62928;BME280;51070;52.236;-0.892;2023-06-10T10:57:21;100562.80;;;36.73;26.36
62928;BME280;51070;52.236;-0.892;2023-06-10T10:59:57;100562.13;;;36.47;26.43
62928;BME280;51070;52.236;-0.892;2023-06-10T11:02:42;100560.37;;;36.19;27.53
62928;BME280;51070;52.236;-0.892;2023-06-10T11:05:10;100560.49;;;36.15;27.76
62928;BME280;51070;52.236;-0.892;2023-06-10T11:07:37;100557.71;;;36.11;27.97
62928;BME280;51070;52.236;-0.892;2023-06-10T11:10:06;100558.76;;;36.02;27.85
62928;BME280;51070;52.236;-0.892;2023-06-10T11:15:09;100560.36;;;35.41;28.99
62928;BME280;51070;52.236;-0.892;2023-06-10T11:17:35;100562.88;;;35.31;29.15
62928;BME280;51070;52.236;-0.892;2023-06-10T11:20:00;100558.56;;;35.11;29.38
62928;BME280;51070;52.236;-0.892;2023-06-10T11:22:25;100553.55;;;34.83;30.19
62928;BME280;51070;52.236;-0.892;2023-06-10T11:24:51;100553.12;;;34.77;30.18
62928;BME280;51070;52.236;-0.892;2023-06-10T11:27:21;100549.37;;;34.72;29.80
62928;BME280;51070;52.236;-0.892;2023-06-10T11:32:34;100549.89;;;34.54;30.24
62928;BME280;51070;52.236;-0.892;2023-06-10T11:35:03;100542.86;;;34.39;30.38
62928;BME280;51070;52.236;-0.892;2023-06-10T11:37:29;100540.98;;;34.32;30.62
62928;BME280;51070;52.236;-0.892;2023-06-10T11:39:55;100538.60;;;34.26;30.61
62928;BME280;51070;52.236;-0.892;2023-06-10T11:42:22;100537.36;;;34.23;30.79
62928;BME280;51070;52.236;-0.892;2023-06-10T11:44:52;100533.93;;;34.21;30.91
62928;BME280;51070;52.236;-0.892;2023-06-10T11:47:18;100530.52;;;34.21;30.76
62928;BME280;51070;52.236;-0.892;2023-06-10T11:49:45;100529.30;;;34.12;30.50
62928;BME280;51070;52.236;-0.892;2023-06-10T11:52:11;100527.39;;;34.06;30.93
62928;BME280;51070;52.236;-0.892;2023-06-10T11:54:37;100526.27;;;34.09;31.21
62928;BME280;51070;52.236;-0.892;2023-06-10T11:57:03;100523.42;;;33.98;31.14
62928;BME280;51070;52.236;-0.892;2023-06-10T11:59:29;100528.83;;;33.85;31.01
62928;BME280;51070;52.236;-0.892;2023-06-10T12:01:55;100525.50;;;33.57;31.20
62928;BME280;51070;52.236;-0.892;2023-06-10T12:04:22;100520.29;;;33.46;32.02
62928;BME280;51070;52.236;-0.892;2023-06-10T12:06:51;100521.78;;;33.45;32.13
62928;BME280;51070;52.236;-0.892;2023-06-10T12:12:05;100521.44;;;33.50;32.04
62928;BME280;51070;52.236;-0.892;2023-06-10T12:14:59;100519.95;;;33.48;32.10
62928;BME280;51070;52.236;-0.892;2023-06-10T12:20:09;100519.03;;;33.52;31.97
62928;BME280;51070;52.236;-0.892;2023-06-10T12:22:49;100508.30;;;33.38;32.21
62928;BME280;51070;52.236;-0.892;2023-06-10T12:25:15;100508.08;;;33.33;32.41
62928;BME280;51070;52.236;-0.892;2023-06-10T12:27:52;100504.39;;;33.35;32.50
62928;BME280;51070;52.236;-0.892;2023-06-10T12:30:22;100499.91;;;33.38;32.66
62928;BME280;51070;52.236;-0.892;2023-06-10T12:32:50;100498.04;;;33.33;32.37
62928;BME280;51070;52.236;-0.892;2023-06-10T12:35:20;100496.15;;;33.32;32.51
62928;BME280;51070;52.236;-0.892;2023-06-10T12:37:58;100497.98;;;33.29;32.45
62928;BME280;51070;52.236;-0.892;2023-06-10T12:40:27;100497.88;;;33.22;32.49
62928;BME280;51070;52.236;-0.892;2023-06-10T12:42:55;100493.48;;;33.10;32.59
62928;BME280;51070;52.236;-0.892;2023-06-10T12:45:28;100489.69;;;32.99;32.69
62928;BME280;51070;52.236;-0.892;2023-06-10T12:48:07;100489.09;;;32.92;32.69
62928;BME280;51070;52.236;-0.892;2023-06-10T12:50:37;100478.58;;;32.97;33.02
62928;BME280;51070;52.236;-0.892;2023-06-10T12:53:04;100490.89;;;33.03;32.89
62928;BME280;51070;52.236;-0.892;2023-06-10T12:55:31;100488.48;;;33.07;32.80
62928;BME280;51070;52.236;-0.892;2023-06-10T12:57:58;100481.16;;;33.06;33.10
62928;BME280;51070;52.236;-0.892;2023-06-10T13:00:24;100480.77;;;33.15;32.82
62928;BME280;51070;52.236;-0.892;2023-06-10T13:02:59;100476.58;;;33.25;32.84